Time;durP1;ratioP1;P1;durP2;ratioP2;P2;SDS_P1;SDS_P2;PMS_P1;PMS_P2;Temp;Humidity;BMP_temperature;BMP_pressure;BME280_temperature;BME280_humidity;BME280_pressure;Samples;Min_cycle;Max_cycle;Signal;HPM_P1;HPM_P2
2022/10/16 00:01:49;;;;;;;7.93;5.97;;;;;;;12.53;80.83;95496.38;5112446;28;20435;-78
2022/10/16 00:04:16;;;;;;;7.20;6.20;;;;;;;12.53;80.28;95497.19;5112453;28;20918;-78
2022/10/16 00:06:42;;;;;;;6.60;5.90;;;;;;;12.49;80.36;95503.69;5112408;28;20853;-78
2022/10/16 00:09:11;;;;;;;6.70;5.40;;;;;;;12.51;80.91;95503.56;5112234;28;20945;-78
2022/10/16 00:11:39;;;;;;;7.30;5.27;;;;;;;12.49;79.99;95506.31;5112887;28;20532;-78
2022/10/16 00:14:12;;;;;;;5.57;4.93;;;;;;;12.48;80.46;95502.03;5112254;28;20447;-77
2022/10/16 00:16:39;;;;;;;6.00;5.40;;;;;;;12.44;80.26;95507.66;5112203;28;20833;-77
2022/10/16 00:19:06;;;;;;;8.93;5.67;;;;;;;12.40;80.15;95507.88;5112402;28;20531;-77
2022/10/16 00:21:34;;;;;;;5.60;5.10;;;;;;;12.34;80.02;95512.81;5112299;28;20890;-78
2022/10/16 00:24:02;;;;;;;10.77;5.30;;;;;;;12.33;80.42;95509.38;5112100;28;20495;-78
2022/10/16 00:26:32;;;;;;;10.80;5.13;;;;;;;12.32;79.81;95514.75;5112250;28;20494;-77
2022/10/16 00:28:59;;;;;;;5.80;5.30;;;;;;;12.30;79.93;95519.31;5112192;28;20934;-78
2022/10/16 00:31:26;;;;;;;8.60;5.00;;;;;;;12.25;80.13;95519.69;5112532;28;20454;-78
2022/10/16 00:33:52;;;;;;;6.30;5.10;;;;;;;12.22;80.46;95519.94;5112427;28;20435;-78
2022/10/16 00:36:22;;;;;;;6.67;4.70;;;;;;;12.20;81.23;95524.50;5112256;28;20446;-78
2022/10/16 00:38:52;;;;;;;7.13;6.10;;;;;;;12.17;80.87;95519.47;5112192;28;20500;-78
2022/10/16 00:41:19;;;;;;;6.27;5.50;;;;;;;12.19;81.00;95527.25;5112188;28;20491;-78
2022/10/16 00:43:50;;;;;;;5.60;4.43;;;;;;;12.21;80.81;95527.97;5112598;28;20430;-78
2022/10/16 00:46:20;;;;;;;7.60;5.30;;;;;;;12.21;80.66;95520.91;5111936;28;20985;-78
2022/10/16 00:48:53;;;;;;;10.17;5.47;;;;;;;12.22;80.30;95524.38;5112033;28;20449;-78
2022/10/16 00:51:22;;;;;;;5.80;5.30;;;;;;;12.24;80.65;95522.44;5111904;28;20491;-78
2022/10/16 00:53:50;;;;;;;7.90;5.20;;;;;;;12.21;79.76;95526.16;5111838;28;20495;-78
2022/10/16 00:56:17;;;;;;;6.20;5.10;;;;;;;12.18;79.64;95529.03;5114228;28;20495;-78
2022/10/16 00:58:44;;;;;;;12.37;6.50;;;;;;;12.11;80.58;95517.31;5116260;28;20482;-78
2022/10/16 01:01:12;;;;;;;8.30;5.67;;;;;;;12.09;79.23;95535.88;5115958;28;20482;-78
2022/10/16 01:03:39;;;;;;;6.93;6.00;;;;;;;12.02;79.44;95529.44;5115818;28;20435;-78
2022/10/16 01:06:19;;;;;;;5.50;5.00;;;;;;;11.89;79.35;95538.44;5115692;28;20474;-78
2022/10/16 01:08:56;;;;;;;6.23;5.63;;;;;;;11.79;80.46;95541.78;5115779;28;20444;-78
2022/10/16 01:11:28;;;;;;;8.03;4.77;;;;;;;11.76;81.07;95544.63;5115656;28;20502;-78
2022/10/16 01:13:59;;;;;;;4.90;4.43;;;;;;;11.69;81.97;95543.44;5116126;28;20810;-78
2022/10/16 01:16:33;;;;;;;5.63;5.03;;;;;;;11.70;81.33;95542.47;5115517;28;20501;-78
2022/10/16 01:19:09;;;;;;;5.83;5.23;;;;;;;11.69;81.26;95542.59;5115448;28;20491;-78
2022/10/16 01:21:41;;;;;;;8.17;6.20;;;;;;;11.65;80.99;95536.75;5115636;28;20441;-78
2022/10/16 01:24:16;;;;;;;5.70;5.20;;;;;;;11.63;81.77;95538.66;5115498;28;20863;-77
2022/10/16 01:27:08;;;;;;;5.67;5.07;;;;;;;11.59;81.27;95529.34;5115379;28;20493;-78
2022/10/16 01:29:42;;;;;;;14.13;6.20;;;;;;;11.58;81.49;95525.06;5115371;28;20445;-78
2022/10/16 01:32:22;;;;;;;9.33;5.40;;;;;;;11.53;81.35;95524.56;5115481;28;20439;-78
2022/10/16 01:34:53;;;;;;;9.43;6.13;;;;;;;11.51;81.87;95529.09;5115095;28;20511;-78
2022/10/16 01:37:30;;;;;;;11.40;6.03;;;;;;;11.48;82.21;95524.09;5115414;28;20429;-78
2022/10/16 01:40:01;;;;;;;7.17;5.57;;;;;;;11.41;82.98;95523.72;5115285;28;20860;-78
2022/10/16 01:42:35;;;;;;;7.57;6.23;;;;;;;11.39;82.33;95515.13;5115122;28;20506;-78
2022/10/16 01:45:03;;;;;;;8.77;6.00;;;;;;;11.26;82.93;95524.91;5115126;28;20537;-79
2022/10/16 01:47:32;;;;;;;6.40;5.53;;;;;;;11.23;83.39;95530.41;5062932;28;20449;-78
2022/10/16 01:50:01;;;;;;;9.00;6.53;;;;;;;11.11;84.47;95528.72;5115122;28;20454;-79
2022/10/16 01:52:30;;;;;;;6.50;5.67;;;;;;;10.96;85.38;95533.34;5115162;28;20478;-78
2022/10/16 01:54:59;;;;;;;8.27;5.60;;;;;;;10.86;85.42;95537.63;5114917;28;20502;-78
2022/10/16 01:57:29;;;;;;;10.37;6.40;;;;;;;10.90;85.54;95533.81;5114862;28;20449;-78
2022/10/16 02:00:02;;;;;;;6.87;6.27;;;;;;;10.87;85.07;95534.06;5115027;28;20445;-78
2022/10/16 02:02:32;;;;;;;6.23;5.67;;;;;;;10.82;85.62;95533.56;5114668;28;20472;-78
2022/10/16 02:05:05;;;;;;;9.63;6.23;;;;;;;10.83;85.13;95535.25;5114537;28;21009;-78
2022/10/16 02:07:32;;;;;;;9.03;7.07;;;;;;;10.83;85.16;95537.88;5077914;28;20445;-78
2022/10/16 02:10:01;;;;;;;9.30;6.50;;;;;;;10.84;85.93;95540.38;5114639;28;20445;-78
2022/10/16 02:12:32;;;;;;;6.77;5.97;;;;;;;10.65;86.77;95541.88;5114550;28;20494;-78
2022/10/16 02:15:00;;;;;;;8.40;7.10;;;;;;;10.54;87.27;95547.91;5114308;28;20848;-78
2022/10/16 02:17:27;;;;;;;10.77;6.60;;;;;;;10.60;86.87;95550.09;5114842;28;20453;-78
2022/10/16 02:19:56;;;;;;;8.10;5.50;;;;;;;10.47;87.22;95559.81;5114459;28;20850;-78
2022/10/16 02:22:28;;;;;;;7.60;6.33;;;;;;;10.30;88.56;95555.81;5114487;28;20453;-78
2022/10/16 02:24:59;;;;;;;9.60;6.80;;;;;;;10.23;88.33;95558.03;5114729;28;20437;-78
2022/10/16 02:27:31;;;;;;;6.47;5.83;;;;;;;10.21;89.00;95561.72;5113828;28;20449;-77
2022/10/16 02:30:08;;;;;;;7.50;6.17;;;;;;;10.15;89.44;95564.78;5061416;28;20443;-78
2022/10/16 02:32:38;;;;;;;8.93;7.33;;;;;;;10.16;88.92;95564.66;5114284;28;20448;-78
2022/10/16 02:35:06;;;;;;;9.20;6.57;;;;;;;10.12;89.36;95568.44;5061373;28;20451;-78
2022/10/16 02:37:33;;;;;;;7.57;6.77;;;;;;;10.21;88.89;95573.06;5113895;28;20453;-77
2022/10/16 02:40:00;;;;;;;6.77;6.10;;;;;;;10.19;88.63;95566.22;5114388;28;20847;-79
2022/10/16 02:42:34;;;;;;;9.70;7.70;;;;;;;10.16;89.90;95569.91;5114031;28;20510;-78
2022/10/16 02:45:03;;;;;;;8.80;6.93;;;;;;;10.04;89.67;95564.69;5113573;28;20442;-78
2022/10/16 02:47:30;;;;;;;10.80;7.30;;;;;;;9.96;90.53;95565.25;5113941;28;20447;-78
2022/10/16 02:49:57;;;;;;;7.67;6.87;;;;;;;9.99;91.01;95572.06;5113899;28;20440;-78
2022/10/16 02:52:23;;;;;;;11.20;7.83;;;;;;;9.98;90.10;95568.59;5113236;28;20481;-78
2022/10/16 02:54:50;;;;;;;9.00;7.13;;;;;;;10.00;89.50;95584.22;5113783;28;20607;-78
2022/10/16 02:57:17;;;;;;;13.10;7.60;;;;;;;9.52;90.81;95576.22;5113715;28;20453;-78
2022/10/16 02:59:44;;;;;;;11.20;8.50;;;;;;;9.18;92.40;95581.19;5077958;28;21006;-78
2022/10/16 03:02:13;;;;;;;13.17;8.93;;;;;;;9.39;91.57;95586.72;5113579;28;20521;-78
2022/10/16 03:04:39;;;;;;;13.63;9.90;;;;;;;9.03;93.49;95587.47;5113269;28;20443;-78
2022/10/16 03:07:07;;;;;;;14.93;8.77;;;;;;;9.24;92.89;95586.00;5113734;28;20494;-77
2022/10/16 03:09:34;;;;;;;14.63;9.20;;;;;;;9.38;92.71;95584.22;5113594;28;20480;-77
2022/10/16 03:12:01;;;;;;;10.83;8.50;;;;;;;9.43;91.92;95592.59;5113434;28;20681;-78
2022/10/16 03:14:27;;;;;;;14.80;9.23;;;;;;;9.50;91.07;95586.81;5113173;28;20922;-78
2022/10/16 03:16:54;;;;;;;15.30;9.03;;;;;;;9.56;90.77;95601.31;5072724;28;20961;-77
2022/10/16 03:19:23;;;;;;;12.67;8.70;;;;;;;9.62;90.67;95591.22;5112979;28;20447;-78
2022/10/16 03:21:50;;;;;;;15.93;10.00;;;;;;;9.71;89.87;95597.59;5113179;28;20446;-77
2022/10/16 03:24:16;;;;;;;12.60;9.37;;;;;;;9.82;90.01;95602.06;5113279;28;20800;-78
2022/10/16 03:26:43;;;;;;;11.03;8.37;;;;;;;9.90;89.18;95599.78;5112950;28;20485;-78
2022/10/16 03:29:10;;;;;;;10.10;8.07;;;;;;;9.99;88.34;95599.09;5113115;28;20494;-77
2022/10/16 03:31:37;;;;;;;11.13;8.77;;;;;;;9.99;87.37;95599.09;5112945;28;20448;-78
2022/10/16 03:34:04;;;;;;;14.37;10.17;;;;;;;10.04;87.62;95602.22;5112552;28;20842;-78
2022/10/16 03:36:32;;;;;;;18.60;8.70;;;;;;;10.06;87.68;95605.59;5076906;28;20503;-78
2022/10/16 03:38:59;;;;;;;12.33;9.17;;;;;;;10.08;87.42;95605.47;5112725;28;20447;-78
2022/10/16 03:41:25;;;;;;;12.03;8.23;;;;;;;10.08;86.95;95601.06;5112757;28;20927;-78
2022/10/16 03:43:52;;;;;;;11.00;7.77;;;;;;;10.04;88.38;95598.78;5112681;28;20991;-78
2022/10/16 03:46:19;;;;;;;10.13;7.83;;;;;;;9.99;88.00;95598.28;5112553;28;20510;-78
2022/10/16 03:48:46;;;;;;;7.70;7.00;;;;;;;9.89;89.09;95598.94;5112682;28;20454;-77
2022/10/16 03:51:12;;;;;;;11.57;7.77;;;;;;;9.86;89.29;95593.06;5112657;28;20864;-78
2022/10/16 03:53:40;;;;;;;9.93;7.67;;;;;;;9.82;89.65;95599.44;5113357;28;21202;-78
2022/10/16 03:56:08;;;;;;;9.80;7.40;;;;;;;9.66;89.97;95594.47;5112833;28;20450;-79
2022/10/16 03:58:34;;;;;;;10.53;8.17;;;;;;;9.62;90.30;95591.22;5112280;28;20448;-78
2022/10/16 04:01:01;;;;;;;10.37;7.80;;;;;;;9.64;90.45;95585.88;5112674;28;20443;-79
2022/10/16 04:03:28;;;;;;;8.80;7.60;;;;;;;9.66;90.32;95591.00;5112305;28;20455;-78
2022/10/16 04:05:55;;;;;;;10.13;8.07;;;;;;;9.69;89.95;95586.38;5112638;28;20489;-78
2022/10/16 04:08:21;;;;;;;8.97;8.07;;;;;;;9.74;89.60;95586.88;5112618;28;20451;-78
2022/10/16 04:10:50;;;;;;;7.97;6.97;;;;;;;9.76;88.90;95592.88;5112931;28;20441;-78
2022/10/16 04:13:17;;;;;;;10.37;8.03;;;;;;;9.78;89.21;95590.13;5113014;28;20452;-78
2022/10/16 04:15:45;;;;;;;9.57;7.37;;;;;;;9.76;89.16;95592.88;5112641;28;20938;-77
2022/10/16 04:18:12;;;;;;;9.73;7.70;;;;;;;9.76;88.74;95598.09;5112432;28;20452;-78
2022/10/16 04:20:39;;;;;;;11.50;7.17;;;;;;;9.76;90.00;95595.47;5113359;28;20508;-78
2022/10/16 04:23:06;;;;;;;9.90;7.10;;;;;;;9.74;89.57;95592.13;5112898;28;20479;-78
2022/10/16 04:25:32;;;;;;;8.77;6.87;;;;;;;9.79;89.37;95589.19;5113172;28;20454;-78
2022/10/16 04:28:00;;;;;;;10.00;8.00;;;;;;;9.85;88.83;95600.09;5113044;28;20561;-78
2022/10/16 04:30:27;;;;;;;7.53;6.57;;;;;;;9.89;88.95;95596.31;5077800;28;20449;-78
2022/10/16 04:32:54;;;;;;;10.67;8.57;;;;;;;9.86;88.94;95591.28;5117116;28;20921;-78
2022/10/16 04:35:22;;;;;;;11.10;7.60;;;;;;;9.91;88.58;95590.97;5117065;28;20918;-78
2022/10/16 04:37:50;;;;;;;9.70;7.53;;;;;;;9.91;88.38;95604.91;5116748;28;20790;-78
2022/10/16 04:40:17;;;;;;;11.73;7.47;;;;;;;9.92;88.36;95608.34;5117064;28;20446;-78
2022/10/16 04:42:44;;;;;;;8.97;7.80;;;;;;;9.92;88.43;95611.81;5116831;28;20456;-77
2022/10/16 04:45:12;;;;;;;12.33;8.20;;;;;;;9.90;88.08;95618.13;5116533;28;20448;-78
2022/10/16 04:47:39;;;;;;;7.87;7.13;;;;;;;9.85;88.24;95622.84;5116573;28;20985;-78
2022/10/16 04:50:06;;;;;;;10.00;6.87;;;;;;;9.84;88.49;95621.19;5059856;28;20437;-78
2022/10/16 04:52:33;;;;;;;11.70;7.43;;;;;;;9.81;88.70;95621.38;5096439;28;20480;-78
2022/10/16 04:55:02;;;;;;;10.40;7.77;;;;;;;9.82;89.52;95618.63;5096617;28;20431;-79
2022/10/16 04:57:36;;;;;;;10.97;8.33;;;;;;;9.80;90.41;95623.16;5096878;28;20449;-79
2022/10/16 05:00:07;;;;;;;8.07;6.87;;;;;;;9.86;90.07;95625.38;5096923;28;20456;-80
2022/10/16 05:02:36;;;;;;;10.03;8.00;;;;;;;9.94;91.00;95628.28;5097116;28;20429;-80
2022/10/16 05:05:08;;;;;;;14.50;7.53;;;;;;;10.05;90.15;95634.53;5096375;28;20972;-79
2022/10/16 05:07:35;;;;;;;7.17;6.47;;;;;;;10.12;89.29;95638.38;5097364;28;20476;-79
2022/10/16 05:10:02;;;;;;;8.30;7.00;;;;;;;10.36;88.47;95644.53;5095114;28;20966;-78
2022/10/16 05:12:30;;;;;;;7.43;6.37;;;;;;;11.00;85.41;95642.50;5096036;28;20463;-77
2022/10/16 05:14:58;;;;;;;7.73;6.90;;;;;;;12.07;82.18;95650.06;5095749;28;20466;-77
2022/10/16 05:17:25;;;;;;;7.17;6.57;;;;;;;12.99;77.38;95654.88;5104713;28;20893;-77
2022/10/16 05:19:53;;;;;;;7.00;6.40;;;;;;;13.91;71.49;95665.69;5116174;28;20474;-77
2022/10/16 05:22:20;;;;;;;7.10;6.40;;;;;;;14.52;68.36;95668.31;5063187;28;20792;-77
2022/10/16 05:24:47;;;;;;;12.40;5.70;;;;;;;15.16;65.95;95673.13;5115714;28;20582;-78
2022/10/16 05:27:18;;;;;;;9.83;6.60;;;;;;;15.69;63.43;95664.75;5115928;28;20492;-77
2022/10/16 05:29:45;;;;;;;12.83;7.33;;;;;;;15.74;61.26;95668.66;5115011;28;20526;-78
2022/10/16 05:32:12;;;;;;;9.00;8.10;;;;;;;15.64;62.84;95667.00;5115579;28;20447;-77
2022/10/16 05:34:39;;;;;;;12.07;9.20;;;;;;;16.00;61.56;95660.09;5115523;28;20553;-77
2022/10/16 05:37:07;;;;;;;12.20;9.20;;;;;;;16.15;60.48;95669.22;5062938;28;20447;-78
2022/10/16 05:39:34;;;;;;;17.33;8.77;;;;;;;16.27;59.74;95661.94;5115573;28;20442;-78
2022/10/16 05:42:01;;;;;;;8.53;7.73;;;;;;;16.23;60.69;95661.41;5114320;28;20455;-77
2022/10/16 05:44:28;;;;;;;16.67;8.50;;;;;;;15.89;59.98;95669.00;5115350;28;20441;-77
2022/10/16 05:46:55;;;;;;;13.90;8.17;;;;;;;15.89;61.84;95663.72;5115184;28;20992;-77
2022/10/16 05:49:21;;;;;;;12.30;8.70;;;;;;;16.08;61.43;95668.97;5115611;28;20450;-77
2022/10/16 05:51:48;;;;;;;10.70;9.30;;;;;;;16.07;61.17;95671.75;5115105;28;20484;-78
2022/10/16 05:54:16;;;;;;;12.57;8.73;;;;;;;16.15;60.87;95674.50;5115217;28;20454;-78
2022/10/16 05:56:43;;;;;;;10.67;8.77;;;;;;;16.31;60.03;95681.84;5115301;28;20448;-77
2022/10/16 05:59:10;;;;;;;10.60;8.80;;;;;;;16.10;60.55;95685.53;5115621;28;20453;-76
2022/10/16 06:01:37;;;;;;;10.60;8.10;;;;;;;16.09;60.91;95685.69;5115264;28;20441;-77
2022/10/16 06:04:04;;;;;;;10.70;8.20;;;;;;;16.32;61.29;95683.53;5114780;28;20461;-77
2022/10/16 06:06:31;;;;;;;12.10;8.13;;;;;;;16.67;60.16;95691.59;5114898;28;20486;-78
2022/10/16 06:08:59;;;;;;;12.33;8.93;;;;;;;16.86;59.06;95690.69;5115278;28;20543;-78
2022/10/16 06:11:29;;;;;;;15.30;9.95;;;;;;;16.90;58.11;95692.03;5114149;28;20802;-78
2022/10/16 06:13:58;;;;;;;10.57;8.67;;;;;;;16.96;58.64;95696.75;5115029;28;20212;-79
2022/10/16 06:16:26;;;;;;;9.70;8.73;;;;;;;17.12;58.30;95697.91;5111876;28;20448;-77
2022/10/16 06:18:55;;;;;;;12.17;8.80;;;;;;;17.32;57.29;95697.59;5094289;28;20451;-78
2022/10/16 06:21:25;;;;;;;11.90;9.43;;;;;;;17.36;56.90;95702.63;5109907;28;20490;-78
2022/10/16 06:23:53;;;;;;;9.83;8.80;;;;;;;17.08;58.03;95697.38;5097304;28;20482;-78
2022/10/16 06:26:22;;;;;;;11.20;9.17;;;;;;;17.15;58.63;95709.06;5113816;28;20446;-78
2022/10/16 06:28:50;;;;;;;12.00;10.00;;;;;;;17.31;57.73;95709.19;5107510;28;20446;-78
2022/10/16 06:31:18;;;;;;;11.47;8.77;;;;;;;17.45;57.67;95707.84;5114099;28;20443;-78
2022/10/16 06:33:46;;;;;;;10.17;9.07;;;;;;;16.56;58.71;95715.63;5058229;28;20519;-78
2022/10/16 06:36:15;;;;;;;11.03;9.60;;;;;;;16.42;60.12;95710.78;5107341;28;20802;-79
2022/10/16 06:38:42;;;;;;;14.03;8.80;;;;;;;16.62;60.57;95714.19;5113697;28;20530;-78
2022/10/16 06:41:12;;;;;;;16.43;10.00;;;;;;;16.80;59.58;95722.25;5111934;28;20442;-78
2022/10/16 06:43:39;;;;;;;11.17;8.33;;;;;;;15.91;62.25;95724.50;5105132;28;20444;-78
2022/10/16 06:46:10;;;;;;;9.60;7.70;;;;;;;16.32;61.90;95721.44;5107234;28;20499;-79
2022/10/16 06:48:40;;;;;;;27.13;17.37;;;;;;;16.16;61.94;95728.31;5093173;28;20480;-79
2022/10/16 06:51:09;;;;;;;21.23;10.43;;;;;;;15.98;62.26;95734.34;5107249;28;20451;-78
2022/10/16 06:53:38;;;;;;;9.57;7.57;;;;;;;15.68;63.69;95732.72;5111027;28;20533;-78
2022/10/16 06:56:08;;;;;;;11.77;8.93;;;;;;;15.86;63.27;95732.81;5093078;28;20927;-79
2022/10/16 06:58:35;;;;;;;11.63;9.20;;;;;;;16.09;63.30;95739.47;5093184;28;20974;-78
2022/10/16 07:01:02;;;;;;;8.70;7.87;;;;;;;15.60;63.20;95742.31;5100364;28;20443;-77
2022/10/16 07:03:30;;;;;;;7.87;7.07;;;;;;;15.48;64.03;95738.97;5111865;28;20458;-79
2022/10/16 07:05:57;;;;;;;8.80;7.47;;;;;;;15.53;64.51;95744.66;5110016;28;20458;-78
2022/10/16 07:08:24;;;;;;;10.77;7.97;;;;;;;15.65;64.75;95745.41;5113266;28;20490;-78
2022/10/16 07:11:02;;;;;;;9.97;8.30;;;;;;;15.84;64.66;95733.94;5100351;28;20857;-78
2022/10/16 07:13:29;;;;;;;9.03;7.43;;;;;;;16.10;63.60;95746.44;5114083;28;20512;-78
2022/10/16 07:15:56;;;;;;;8.60;6.90;;;;;;;16.27;63.00;95747.53;5114035;28;20452;-78
2022/10/16 07:18:26;;;;;;;9.20;8.23;;;;;;;16.47;63.09;95748.28;5099268;28;20451;-78
2022/10/16 07:21:03;;;;;;;8.73;7.13;;;;;;;16.57;61.66;95741.16;5092674;28;20930;-79
2022/10/16 07:23:30;;;;;;;10.73;7.97;;;;;;;16.64;61.98;95752.00;5092775;28;20443;-78
2022/10/16 07:25:57;;;;;;;9.37;8.37;;;;;;;16.56;62.09;95750.06;5092747;28;20452;-78
2022/10/16 07:28:23;;;;;;;8.53;7.73;;;;;;;16.68;62.36;95743.63;5092850;28;20475;-78
2022/10/16 07:30:50;;;;;;;8.27;7.40;;;;;;;16.67;61.59;95751.72;5092609;28;20887;-78
2022/10/16 07:33:17;;;;;;;10.37;8.40;;;;;;;16.45;61.95;95744.94;5092398;28;20783;-78
2022/10/16 07:35:57;;;;;;;14.10;8.47;;;;;;;16.41;62.40;95749.69;5040150;28;20456;-78
2022/10/16 07:38:25;;;;;;;10.87;8.50;;;;;;;16.37;62.94;95753.63;5092450;28;20534;-78
2022/10/16 07:40:58;;;;;;;17.97;8.10;;;;;;;16.42;62.58;95756.66;5092340;28;20505;-79
2022/10/16 07:43:25;;;;;;;11.10;9.07;;;;;;;16.27;62.85;95749.34;5092343;28;20529;-78
2022/10/16 07:45:54;;;;;;;11.50;8.03;;;;;;;16.23;63.35;95756.75;5092427;28;20857;-78
2022/10/16 07:48:22;;;;;;;9.50;8.53;;;;;;;15.85;64.00;95752.34;5092517;28;20856;-78
2022/10/16 07:50:48;;;;;;;10.00;8.10;;;;;;;16.11;64.35;95758.69;5092430;28;20458;-78
2022/10/16 07:53:16;;;;;;;10.40;7.90;;;;;;;16.09;64.21;95760.66;5056122;28;20467;-79
2022/10/16 07:55:44;;;;;;;10.57;8.47;;;;;;;16.36;64.09;95749.31;5092211;28;20455;-79
2022/10/16 07:58:11;;;;;;;9.73;8.30;;;;;;;16.62;62.63;95753.97;5040095;28;20500;-78
2022/10/16 08:00:38;;;;;;;9.70;7.83;;;;;;;16.78;62.13;95753.38;5092224;28;20855;-78
2022/10/16 08:03:05;;;;;;;14.03;8.83;;;;;;;16.71;62.11;95753.94;5092044;28;20444;-78
2022/10/16 08:05:34;;;;;;;10.60;9.40;;;;;;;16.74;62.18;95755.47;5091425;28;20448;-79
2022/10/16 08:08:01;;;;;;;18.43;9.10;;;;;;;16.65;62.37;95759.78;5092280;28;20515;-78
2022/10/16 08:10:29;;;;;;;10.20;8.83;;;;;;;16.64;62.62;95757.28;5091962;28;20467;-77
2022/10/16 08:12:58;;;;;;;10.57;7.67;;;;;;;16.36;62.23;95756.41;5091793;28;20979;-78
2022/10/16 08:15:25;;;;;;;12.87;7.60;;;;;;;16.36;62.53;95745.81;5091746;28;20448;-78
2022/10/16 08:17:56;;;;;;;9.97;8.23;;;;;;;16.41;62.28;95759.47;5091889;28;20451;-78
2022/10/16 08:20:23;;;;;;;11.40;8.33;;;;;;;16.53;63.86;95750.38;5091730;28;20995;-78
2022/10/16 08:22:50;;;;;;;9.00;7.03;;;;;;;16.24;62.60;95758.41;5092056;28;20866;-78
2022/10/16 08:25:16;;;;;;;10.83;7.10;;;;;;;16.50;62.68;95752.47;5091750;28;20457;-78
2022/10/16 08:27:44;;;;;;;7.27;6.57;;;;;;;16.59;61.32;95749.78;5091941;28;20491;-78
2022/10/16 08:30:13;;;;;;;12.67;8.60;;;;;;;16.63;60.96;95748.50;5091950;28;20593;-79
2022/10/16 08:32:41;;;;;;;12.47;7.13;;;;;;;16.91;62.45;95748.56;5091798;28;20501;-78
2022/10/16 08:35:09;;;;;;;20.50;7.67;;;;;;;17.10;59.72;95745.81;5092188;28;20456;-78
2022/10/16 08:37:35;;;;;;;8.40;6.87;;;;;;;17.34;59.13;95745.19;5091837;28;20459;-78
2022/10/16 08:40:02;;;;;;;9.17;6.73;;;;;;;17.42;57.41;95739.16;5092276;28;20447;-78
2022/10/16 08:42:45;;;;;;;8.53;6.80;;;;;;;17.57;57.16;95746.44;5091613;28;20459;-78
2022/10/16 08:45:39;;;;;;;6.10;5.53;;;;;;;17.66;56.24;95744.69;5091749;28;20811;-78
2022/10/16 08:48:15;;;;;;;8.43;5.70;;;;;;;17.73;55.49;95748.44;5091627;28;20491;-78
2022/10/16 08:50:42;;;;;;;5.97;5.40;;;;;;;17.60;53.60;95742.63;5091514;28;20439;-78
2022/10/16 08:53:16;;;;;;;6.60;6.00;;;;;;;17.72;54.24;95751.25;5091975;28;20495;-78
2022/10/16 08:55:46;;;;;;;13.40;5.70;;;;;;;17.50;53.88;95741.88;5091781;28;20444;-78
2022/10/16 08:58:15;;;;;;;6.50;5.43;;;;;;;17.76;53.65;95758.75;5097613;28;20458;-77
2022/10/16 09:00:47;;;;;;;9.37;6.47;;;;;;;17.98;52.49;95751.28;5091183;28;20451;-78
2022/10/16 09:03:22;;;;;;;7.10;5.33;;;;;;;18.25;52.65;95753.81;5091018;28;20449;-78
2022/10/16 09:06:11;;;;;;;5.70;4.60;;;;;;;18.17;48.86;95751.91;5091465;28;20454;-78
2022/10/16 09:08:49;;;;;;;4.93;4.43;;;;;;;18.05;50.93;95739.06;5091339;28;20541;-78
2022/10/16 09:11:26;;;;;;;5.93;5.30;;;;;;;18.10;50.73;95739.41;5091272;28;20442;-78
2022/10/16 09:14:00;;;;;;;5.20;4.77;;;;;;;18.18;50.51;95742.13;5040700;28;20455;-78
2022/10/16 09:16:32;;;;;;;6.50;4.47;;;;;;;18.22;49.69;95743.50;5092089;28;20458;-78
2022/10/16 09:19:05;;;;;;;15.23;4.97;;;;;;;18.34;49.47;95747.56;5095059;28;20862;-78
2022/10/16 09:21:36;;;;;;;4.60;4.00;;;;;;;18.27;48.95;95742.03;5095104;28;20531;-79
2022/10/16 09:24:12;;;;;;;5.70;4.40;;;;;;;18.45;48.95;95738.47;5095612;28;20450;-78
2022/10/16 09:26:39;;;;;;;7.23;4.60;;;;;;;18.55;49.33;95745.38;5095707;28;21064;-78
2022/10/16 09:29:06;;;;;;;5.97;4.77;;;;;;;18.24;48.87;95742.38;5095699;28;20890;-78
2022/10/16 09:31:37;;;;;;;6.63;4.77;;;;;;;18.37;49.10;95744.59;5095815;28;20846;-78
2022/10/16 09:34:06;;;;;;;5.43;4.87;;;;;;;18.45;49.36;95741.13;5095601;28;20448;-79
2022/10/16 09:36:40;;;;;;;9.43;5.17;;;;;;;18.54;49.37;95732.25;5095666;28;20526;-79
2022/10/16 09:39:08;;;;;;;5.40;4.90;;;;;;;18.42;49.07;95730.81;5095095;28;20789;-78
2022/10/16 09:41:38;;;;;;;7.60;4.70;;;;;;;18.38;50.14;95730.31;5095419;28;20490;-78
2022/10/16 09:44:07;;;;;;;7.40;5.40;;;;;;;18.39;50.60;95729.31;5095482;28;20450;-79
2022/10/16 09:46:37;;;;;;;10.60;5.67;;;;;;;18.36;50.05;95726.97;5095248;28;20447;-79
2022/10/16 09:49:19;;;;;;;9.17;7.10;;;;;;;18.35;50.51;95722.66;5094866;28;21005;-79
2022/10/16 09:51:47;;;;;;;8.27;4.60;;;;;;;18.18;49.61;95726.19;5094916;28;20477;-79
2022/10/16 09:54:16;;;;;;;5.40;4.90;;;;;;;18.25;50.14;95727.25;5043138;28;20528;-79
2022/10/16 09:56:45;;;;;;;8.90;5.10;;;;;;;18.38;50.71;95719.69;5095219;28;20447;-79
2022/10/16 09:59:13;;;;;;;5.73;4.80;;;;;;;18.50;50.35;95718.44;5094825;28;20824;-78
2022/10/16 10:01:45;;;;;;;6.13;5.60;;;;;;;18.55;50.55;95716.13;5095291;28;20448;-78
2022/10/16 10:04:12;;;;;;;7.13;5.30;;;;;;;18.48;50.25;95723.03;5095200;28;20440;-78
2022/10/16 10:06:45;;;;;;;6.47;4.13;;;;;;;18.28;50.14;95716.31;5043087;28;21018;-78
2022/10/16 10:09:22;;;;;;;8.63;5.60;;;;;;;18.36;50.56;95712.84;5094691;28;20488;-78
2022/10/16 10:11:52;;;;;;;7.70;5.47;;;;;;;18.30;50.13;95709.00;5094739;28;20914;-78
2022/10/16 10:14:22;;;;;;;6.53;5.83;;;;;;;18.29;50.46;95702.03;5094561;28;20441;-79
2022/10/16 10:16:52;;;;;;;6.47;5.00;;;;;;;18.25;50.88;95695.38;5097103;28;20471;-79
2022/10/16 10:19:20;;;;;;;6.13;5.40;;;;;;;18.13;50.64;95700.09;5111996;28;20447;-81
2022/10/16 10:21:47;;;;;;;6.57;5.27;;;;;;;18.09;50.99;95705.88;5110415;28;20496;-79
2022/10/16 10:24:16;;;;;;;5.03;4.63;;;;;;;18.16;51.33;95701.59;5115124;28;20451;-79
2022/10/16 10:26:50;;;;;;;7.33;5.87;;;;;;;18.24;51.67;95699.03;5097986;28;20444;-81
2022/10/16 10:29:27;;;;;;;5.73;5.07;;;;;;;18.36;50.87;95699.56;5104340;28;20494;-79
2022/10/16 10:32:05;;;;;;;6.73;5.90;;;;;;;18.49;50.48;95691.97;5099775;28;20442;-78
2022/10/16 10:34:46;;;;;;;6.77;5.37;;;;;;;18.62;51.06;95691.56;5103299;28;20452;-78
2022/10/16 10:37:29;;;;;;;10.13;5.70;;;;;;;18.60;49.38;95683.75;5113844;28;20449;-79
2022/10/16 10:40:05;;;;;;;7.90;6.90;;;;;;;18.69;50.34;95688.13;5112886;28;20770;-79
2022/10/16 10:42:41;;;;;;;9.83;5.47;;;;;;;18.75;50.38;95691.97;5114406;28;20504;-78
2022/10/16 10:45:23;;;;;;;4.40;4.00;;;;;;;18.71;47.96;95698.59;5099792;28;20446;-78
2022/10/16 10:48:17;;;;;;;5.00;4.50;;;;;;;18.49;47.04;95687.50;5108235;28;20439;-78
2022/10/16 10:50:52;;;;;;;5.20;4.70;;;;;;;18.16;47.60;95678.53;5057596;28;20448;-79
2022/10/16 10:53:29;;;;;;;6.93;4.50;;;;;;;18.20;47.04;95682.53;5115286;28;20470;-79
2022/10/16 10:56:08;;;;;;;4.43;4.00;;;;;;;18.31;46.59;95681.44;5100555;28;20500;-79
2022/10/16 10:58:58;;;;;;;5.00;4.50;;;;;;;18.39;46.74;95676.16;5115138;28;20451;-78
2022/10/16 11:01:49;;;;;;;7.13;4.77;;;;;;;18.47;46.79;95675.38;5031264;28;20642;-80
2022/10/16 11:04:39;;;;;;;7.17;4.77;;;;;;;18.64;45.46;95663.03;5030563;28;20541;-79
2022/10/16 11:07:10;;;;;;;5.77;5.17;;;;;;;18.75;44.55;95660.88;5037063;28;20455;-79
2022/10/16 11:09:41;;;;;;;6.00;4.20;;;;;;;18.86;45.04;95657.13;5036864;28;20501;-79
2022/10/16 11:12:15;;;;;;;7.07;3.37;;;;;;;18.61;41.75;95658.00;5030340;28;20517;-79
2022/10/16 11:14:47;;;;;;;5.17;3.77;;;;;;;18.45;41.97;95654.25;5029948;28;20453;-80
2022/10/16 11:17:21;;;;;;;6.50;4.37;;;;;;;18.67;41.88;95662.69;5030112;28;20446;-80
2022/10/16 11:19:55;;;;;;;3.67;3.37;;;;;;;18.82;41.14;95661.09;5043493;28;20968;-79
2022/10/16 11:22:30;;;;;;;3.40;3.10;;;;;;;18.79;40.39;95646.31;5036440;28;20494;-79
2022/10/16 11:25:03;;;;;;;4.00;3.17;;;;;;;18.75;39.42;95647.59;5049731;28;20444;-79
2022/10/16 11:27:38;;;;;;;3.30;3.00;;;;;;;18.63;40.08;95648.06;5038646;28;20470;-79
2022/10/16 11:30:14;;;;;;;3.47;3.10;;;;;;;18.69;41.23;95648.25;5029756;28;20996;-79
2022/10/16 11:32:52;;;;;;;4.53;3.13;;;;;;;18.56;39.14;95643.38;5041790;28;20635;-79
2022/10/16 11:35:26;;;;;;;3.60;3.17;;;;;;;18.73;41.45;95646.91;5030290;28;20900;-79
2022/10/16 11:37:57;;;;;;;10.63;3.97;;;;;;;18.82;42.24;95645.16;4998935;28;20472;-79
2022/10/16 11:40:29;;;;;;;3.73;3.00;;;;;;;18.81;40.61;95643.47;5091277;28;20859;-80
2022/10/16 11:43:03;;;;;;;3.97;3.67;;;;;;;18.81;41.62;95643.47;5092322;28;20505;-80
2022/10/16 11:45:37;;;;;;;4.77;3.27;;;;;;;18.83;41.93;95644.97;5097445;28;20447;-80